createdAt,value
2022-11-19T00:00:31.581Z,5.50
2022-11-19T00:03:02.186Z,7.87
2022-11-19T00:05:32.106Z,4.33
2022-11-19T00:08:05.319Z,5.70
2022-11-19T00:10:36.491Z,4.80
2022-11-19T00:13:06.864Z,5.87
2022-11-19T00:15:38.829Z,5.40
2022-11-19T00:18:10.407Z,5.30
2022-11-19T00:20:40.222Z,5.83
2022-11-19T00:23:10.191Z,6.70
2022-11-19T00:25:39.303Z,4.33
2022-11-19T00:28:12.377Z,5.00
2022-11-19T00:30:48.915Z,5.47
2022-11-19T00:33:18.557Z,5.57
2022-11-19T00:35:48.772Z,5.37
2022-11-19T00:38:18.560Z,3.90
2022-11-19T00:40:51.347Z,5.73
2022-11-19T00:43:39.405Z,5.17
2022-11-19T00:46:09.404Z,4.90
2022-11-19T00:48:39.783Z,3.87
2022-11-19T00:51:09.376Z,4.33
2022-11-19T00:53:38.818Z,4.40
2022-11-19T00:56:09.726Z,4.70
2022-11-19T00:58:42.599Z,5.20
2022-11-19T01:01:13.598Z,3.50
2022-11-19T01:03:53.270Z,4.43
2022-11-19T01:06:23.926Z,3.77
2022-11-19T01:08:57.245Z,4.00
2022-11-19T01:14:27.223Z,5.10
2022-11-19T01:16:56.534Z,4.83
2022-11-19T01:19:26.622Z,4.63
2022-11-19T01:21:56.566Z,4.03
2022-11-19T01:24:27.802Z,4.53
2022-11-19T01:27:00.312Z,5.57
2022-11-19T01:29:33.169Z,5.53
2022-11-19T01:32:03.395Z,4.73
2022-11-19T01:34:32.498Z,4.40
2022-11-19T01:37:01.867Z,3.70
2022-11-19T01:39:31.104Z,4.70
2022-11-19T01:41:59.845Z,4.00
2022-11-19T01:45:03.291Z,4.63
2022-11-19T01:47:34.795Z,5.73
2022-11-19T01:50:05.369Z,4.50
2022-11-19T01:52:34.266Z,4.90
2022-11-19T01:55:03.753Z,4.23
2022-11-19T01:57:33.907Z,5.53
2022-11-19T02:00:03.418Z,4.63
2022-11-19T02:02:35.004Z,4.20
2022-11-19T02:05:04.454Z,5.20
2022-11-19T02:07:39.386Z,6.53
2022-11-19T02:10:10.287Z,4.80
2022-11-19T02:12:45.476Z,6.50
2022-11-19T02:15:27.829Z,5.30
2022-11-19T02:18:14.325Z,6.13
2022-11-19T02:20:47.940Z,6.60
2022-11-19T02:23:33.272Z,6.00
2022-11-19T02:26:15.773Z,5.70
2022-11-19T02:28:46.840Z,7.17
2022-11-19T02:31:24.224Z,6.17
2022-11-19T02:33:58.541Z,5.90
2022-11-19T02:36:28.429Z,8.80
2022-11-19T02:39:00.729Z,6.23
2022-11-19T02:41:35.848Z,4.67
2022-11-19T02:44:28.883Z,6.10
2022-11-19T02:47:01.663Z,7.13
2022-11-19T02:49:33.795Z,3.93
2022-11-19T02:52:05.483Z,4.87
2022-11-19T02:54:36.942Z,6.30
2022-11-19T02:57:07.874Z,5.27
2022-11-19T02:59:57.594Z,5.50
2022-11-19T03:02:48.519Z,6.10
2022-11-19T03:05:18.873Z,6.77
2022-11-19T03:07:49.051Z,7.00
2022-11-19T03:10:21.576Z,5.80
2022-11-19T03:12:53.407Z,5.63
2022-11-19T03:15:46.088Z,5.80
2022-11-19T03:18:18.672Z,5.43
2022-11-19T03:20:48.901Z,6.17
2022-11-19T03:23:22.260Z,8.13
2022-11-19T03:25:53.280Z,5.70
2022-11-19T03:28:24.303Z,5.80
2022-11-19T03:30:54.569Z,7.63
2022-11-19T03:33:26.629Z,7.37
2022-11-19T03:35:57.717Z,7.07
2022-11-19T03:38:30.005Z,7.10
2022-11-19T03:41:01.353Z,9.30
2022-11-19T03:43:32.611Z,6.00
2022-11-19T03:46:06.317Z,8.13
2022-11-19T03:48:38.173Z,8.77
2022-11-19T03:51:10.421Z,7.43
2022-11-19T03:53:39.570Z,6.10
2022-11-19T03:56:10.650Z,6.80
2022-11-19T03:58:41.418Z,8.37
2022-11-19T04:01:11.574Z,7.67
2022-11-19T04:04:06.294Z,6.73
2022-11-19T04:06:35.388Z,10.37
2022-11-19T04:09:05.100Z,7.70
2022-11-19T04:11:33.947Z,7.93
2022-11-19T04:14:04.354Z,8.60
2022-11-19T04:16:33.419Z,10.10
2022-11-19T04:19:03.889Z,8.80
2022-11-19T04:21:33.981Z,10.10
2022-11-19T04:24:02.799Z,8.37
2022-11-19T04:26:31.658Z,7.73
2022-11-19T04:29:00.686Z,8.13
2022-11-19T04:31:29.755Z,8.43
2022-11-19T04:33:58.661Z,9.77
2022-11-19T04:36:29.245Z,12.23
2022-11-19T04:38:58.436Z,8.63
2022-11-19T04:41:27.509Z,7.67
2022-11-19T04:43:57.059Z,9.20
2022-11-19T04:46:25.855Z,7.33
2022-11-19T04:48:54.959Z,8.70
2022-11-19T04:58:10.914Z,9.47
2022-11-19T05:00:40.889Z,7.73
2022-11-19T05:03:09.848Z,10.97
2022-11-19T05:05:38.896Z,7.60
2022-11-19T05:08:10.345Z,7.20
2022-11-19T05:10:39.240Z,7.93
2022-11-19T05:13:10.480Z,7.07
2022-11-19T05:15:40.087Z,10.23
2022-11-19T05:18:09.808Z,8.53
2022-11-19T05:20:40.819Z,9.77
2022-11-19T05:23:09.831Z,7.67
2022-11-19T05:25:41.497Z,9.03
2022-11-19T05:28:13.182Z,9.90
2022-11-19T05:30:42.926Z,9.57
2022-11-19T05:33:14.066Z,6.10
2022-11-19T05:35:42.958Z,8.23
2022-11-19T05:38:11.716Z,10.13
2022-11-19T05:40:40.633Z,11.00
2022-11-19T05:43:10.133Z,10.27
2022-11-19T05:45:40.995Z,9.10
2022-11-19T05:48:10.224Z,7.83
2022-11-19T05:50:39.390Z,7.13
2022-11-19T05:53:08.223Z,8.30
2022-11-19T05:55:37.173Z,10.40
2022-11-19T05:58:06.409Z,9.10
2022-11-19T06:00:35.574Z,9.97
2022-11-19T06:03:05.872Z,9.03
2022-11-19T06:05:39.828Z,11.33
2022-11-19T06:08:09.379Z,10.63
2022-11-19T06:10:38.321Z,8.53
2022-11-19T06:13:08.443Z,10.77
2022-11-19T06:15:38.283Z,10.13
2022-11-19T06:18:08.871Z,9.13
2022-11-19T06:20:37.899Z,9.00
2022-11-19T06:23:07.106Z,11.57
2022-11-19T06:25:35.957Z,8.53
2022-11-19T06:28:05.799Z,9.60
2022-11-19T06:30:34.617Z,10.80
2022-11-19T06:33:03.641Z,7.47
2022-11-19T06:35:35.385Z,11.83
2022-11-19T06:38:04.812Z,9.47
2022-11-19T06:40:34.260Z,10.30
2022-11-19T06:43:03.872Z,11.30
2022-11-19T06:45:35.049Z,10.90
2022-11-19T06:48:04.387Z,8.60
2022-11-19T06:50:34.670Z,9.47
2022-11-19T06:53:03.462Z,9.60
2022-11-19T06:55:34.552Z,7.97
2022-11-19T06:58:04.198Z,9.70
2022-11-19T07:00:33.360Z,11.20
2022-11-19T07:03:02.389Z,9.77
2022-11-19T07:05:32.528Z,6.63
2022-11-19T07:08:04.518Z,9.70
2022-11-19T07:10:34.046Z,9.60
2022-11-19T07:13:03.247Z,7.60
2022-11-19T07:15:32.398Z,10.97
2022-11-19T07:18:01.245Z,6.10
2022-11-19T07:20:30.944Z,9.70
2022-11-19T07:22:59.878Z,8.07
2022-11-19T07:25:30.461Z,8.60
2022-11-19T07:27:59.669Z,9.83
2022-11-19T07:30:31.593Z,9.00
2022-11-19T07:33:00.560Z,7.97
2022-11-19T07:35:29.585Z,9.43
2022-11-19T07:37:59.886Z,9.93
2022-11-19T07:40:30.502Z,7.20
2022-11-19T07:42:58.251Z,8.10
2022-11-19T07:45:27.134Z,6.60
2022-11-19T07:47:56.479Z,7.33
2022-11-19T07:50:25.561Z,10.40
2022-11-19T07:52:54.708Z,10.00
2022-11-19T07:55:23.698Z,7.13
2022-11-19T07:57:55.939Z,7.80
2022-11-19T08:00:26.836Z,5.80
2022-11-19T08:02:56.126Z,5.70
2022-11-19T08:05:25.307Z,7.67
2022-11-19T08:07:54.291Z,6.50
2022-11-19T08:10:27.704Z,6.67
2022-11-19T08:13:06.264Z,8.20
2022-11-19T08:15:36.337Z,6.23
2022-11-19T08:18:13.336Z,6.20
2022-11-19T08:20:43.255Z,7.70
2022-11-19T08:23:13.420Z,8.37
2022-11-19T08:25:44.849Z,8.50
2022-11-19T08:28:16.732Z,6.53
2022-11-19T08:30:47.196Z,10.17
2022-11-19T08:33:16.297Z,6.50
2022-11-19T08:35:46.973Z,6.80
2022-11-19T08:38:16.241Z,8.57
2022-11-19T08:40:45.642Z,6.17
2022-11-19T08:43:15.004Z,7.13
2022-11-19T08:45:51.632Z,8.20
2022-11-19T08:48:21.100Z,4.67
2022-11-19T08:50:49.971Z,10.17
2022-11-19T08:53:19.220Z,8.23
2022-11-19T08:55:52.632Z,6.17
2022-11-19T08:58:24.336Z,6.10
2022-11-19T09:00:53.473Z,6.40
2022-11-19T09:03:22.789Z,5.60
2022-11-19T09:05:52.342Z,5.87
2022-11-19T09:08:21.753Z,6.70
2022-11-19T09:10:50.823Z,6.10
2022-11-19T09:13:21.891Z,7.23
2022-11-19T09:15:53.599Z,6.33
2022-11-19T09:18:23.088Z,4.80
2022-11-19T09:20:55.999Z,6.33
2022-11-19T09:23:25.744Z,5.80
2022-11-19T09:25:59.333Z,5.47
2022-11-19T09:28:29.847Z,5.27
2022-11-19T09:31:01.312Z,5.60
2022-11-19T09:33:32.764Z,4.87
2022-11-19T09:36:01.764Z,5.73
2022-11-19T09:38:43.647Z,5.70
2022-11-19T09:41:24.918Z,6.13
2022-11-19T09:44:00.954Z,5.90
2022-11-19T09:46:38.678Z,6.77
2022-11-19T09:49:11.534Z,5.47
2022-11-19T09:51:43.096Z,4.07
2022-11-19T09:54:19.888Z,3.70
2022-11-19T09:56:50.620Z,7.10
2022-11-19T09:59:26.698Z,5.03
2022-11-19T10:01:59.283Z,6.30
2022-11-19T10:04:30.644Z,5.40
2022-11-19T10:07:04.497Z,6.03
2022-11-19T10:09:46.403Z,5.27
2022-11-19T10:12:21.093Z,7.10
2022-11-19T10:15:13.134Z,6.53
2022-11-19T10:17:53.130Z,3.70
2022-11-19T10:20:41.246Z,5.60
2022-11-19T10:23:15.473Z,4.40
2022-11-19T10:25:46.205Z,5.90
2022-11-19T10:28:17.009Z,5.83
2022-11-19T10:30:50.142Z,4.50
2022-11-19T10:33:29.344Z,6.10
2022-11-19T10:36:01.037Z,7.03
2022-11-19T10:38:32.280Z,4.13
2022-11-19T10:41:03.521Z,6.00
2022-11-19T10:43:35.001Z,4.20
2022-11-19T10:46:10.286Z,5.33
2022-11-19T10:48:43.615Z,7.50
2022-11-19T10:51:14.959Z,5.57
2022-11-19T10:53:44.231Z,6.17
2022-11-19T10:56:18.621Z,5.57
2022-11-19T10:58:49.589Z,5.20
2022-11-19T11:01:26.379Z,6.37
2022-11-19T11:04:07.733Z,6.77
2022-11-19T11:06:53.158Z,5.83
2022-11-19T11:09:33.465Z,4.10
2022-11-19T11:12:23.121Z,3.90
2022-11-19T11:14:55.980Z,4.30
2022-11-19T11:17:27.379Z,6.00
2022-11-19T11:20:04.942Z,5.93
2022-11-19T11:22:35.330Z,5.20
2022-11-19T11:25:07.467Z,4.10
2022-11-19T11:27:40.273Z,6.07
2022-11-19T11:30:18.265Z,5.40
2022-11-19T11:32:49.369Z,5.30
2022-11-19T11:35:39.342Z,5.70
2022-11-19T11:38:11.424Z,5.00
2022-11-19T11:40:40.607Z,4.10
2022-11-19T11:43:10.201Z,5.60
2022-11-19T11:45:40.066Z,5.43
2022-11-19T11:48:10.652Z,4.10
2022-11-19T11:50:41.093Z,5.13
2022-11-19T11:53:12.438Z,4.30
2022-11-19T11:55:41.548Z,4.83
2022-11-19T11:58:25.700Z,3.87
2022-11-19T12:00:57.129Z,4.67
2022-11-19T12:03:28.951Z,4.67
2022-11-19T12:06:02.809Z,5.20
2022-11-19T12:08:46.850Z,4.77
2022-11-19T12:11:21.826Z,3.40
2022-11-19T12:13:59.756Z,3.57
2022-11-19T12:16:41.465Z,3.50
2022-11-19T12:19:19.124Z,5.63
2022-11-19T12:21:56.395Z,5.77
2022-11-19T12:24:39.147Z,6.67
2022-11-19T12:27:16.045Z,5.30
2022-11-19T12:29:53.572Z,5.67
2022-11-19T12:32:31.304Z,5.57
2022-11-19T12:35:16.652Z,4.97
2022-11-19T12:38:04.066Z,4.17
2022-11-19T12:40:51.644Z,4.23
2022-11-19T12:43:32.178Z,3.83
2022-11-19T12:46:04.622Z,4.83
2022-11-19T12:48:45.302Z,4.97
2022-11-19T12:51:23.360Z,3.63
2022-11-19T12:54:04.834Z,4.30
2022-11-19T12:56:40.618Z,4.90
2022-11-19T12:59:18.925Z,3.30
2022-11-19T13:01:51.080Z,4.40
2022-11-19T13:04:27.269Z,3.20
2022-11-19T13:07:15.263Z,3.83
2022-11-19T13:09:59.840Z,4.30
2022-11-19T13:12:34.978Z,5.17
2022-11-19T13:15:07.901Z,4.93
2022-11-19T13:17:46.062Z,3.97
2022-11-19T13:20:26.091Z,4.70
2022-11-19T13:23:02.719Z,4.17
2022-11-19T13:25:37.271Z,4.20
2022-11-19T13:28:18.141Z,5.23
2022-11-19T13:30:57.100Z,5.13
2022-11-19T13:33:33.596Z,5.10
2022-11-19T13:36:18.856Z,3.83
2022-11-19T13:38:54.429Z,3.77
2022-11-19T13:42:06.703Z,4.87
2022-11-19T13:44:47.464Z,4.40
2022-11-19T13:47:23.415Z,3.83
2022-11-19T13:49:58.573Z,5.60
2022-11-19T13:55:33.774Z,5.03
2022-11-19T13:58:28.009Z,4.80
2022-11-19T14:01:12.865Z,3.80
2022-11-19T14:03:52.917Z,6.43
2022-11-19T14:06:32.633Z,3.13
2022-11-19T14:09:12.026Z,3.97
2022-11-19T14:11:59.101Z,3.60
2022-11-19T14:14:56.856Z,3.50
2022-11-19T14:17:59.310Z,5.43
2022-11-19T14:20:56.659Z,3.83
2022-11-19T14:27:18.598Z,2.60
2022-11-19T14:33:32.158Z,2.53
2022-11-19T14:36:20.979Z,4.03
2022-11-19T14:38:54.575Z,5.00
2022-11-19T14:41:36.403Z,4.33
2022-11-19T14:44:09.392Z,3.43
2022-11-19T14:46:41.693Z,3.70
2022-11-19T14:49:41.641Z,4.00
2022-11-19T14:52:24.243Z,3.97
2022-11-19T14:54:59.099Z,5.30
2022-11-19T14:57:40.097Z,6.90
2022-11-19T15:00:33.132Z,3.70
2022-11-19T15:03:11.557Z,4.27
2022-11-19T15:05:43.939Z,4.80
2022-11-19T15:08:47.804Z,3.40
2022-11-19T15:11:17.668Z,3.83
2022-11-19T15:13:47.470Z,5.03
2022-11-19T15:16:20.978Z,5.00
2022-11-19T15:19:06.063Z,3.30
2022-11-19T15:21:56.283Z,4.37
2022-11-19T15:24:33.785Z,4.40
2022-11-19T15:27:12.875Z,3.87
2022-11-19T15:30:12.056Z,5.20
2022-11-19T15:33:08.339Z,5.60
2022-11-19T15:36:06.000Z,6.90
2022-11-19T15:38:46.212Z,5.20
2022-11-19T15:41:35.777Z,4.50
2022-11-19T15:47:01.782Z,5.50
2022-11-19T15:49:37.778Z,4.03
2022-11-19T15:52:20.029Z,4.17
2022-11-19T15:55:08.804Z,4.20
2022-11-19T15:58:04.725Z,3.00
2022-11-19T16:00:48.882Z,4.33
2022-11-19T16:03:20.818Z,4.57
2022-11-19T16:05:54.179Z,5.53
2022-11-19T16:08:31.297Z,2.77
2022-11-19T16:11:22.049Z,5.27
2022-11-19T16:14:12.447Z,4.87
2022-11-19T16:17:00.555Z,5.10
2022-11-19T16:19:29.694Z,5.70
2022-11-19T16:22:03.901Z,4.57
2022-11-19T16:24:50.982Z,4.17
2022-11-19T16:27:26.354Z,3.90
2022-11-19T16:29:57.866Z,8.30
2022-11-19T16:32:30.929Z,3.80
2022-11-19T16:35:22.234Z,4.00
2022-11-19T16:37:53.289Z,4.27
2022-11-19T16:40:25.113Z,5.00
2022-11-19T16:42:55.345Z,4.67
2022-11-19T16:45:26.527Z,3.80
2022-11-19T16:48:00.855Z,4.20
2022-11-19T16:50:34.473Z,4.53
2022-11-19T16:53:04.626Z,5.10
2022-11-19T16:55:46.361Z,4.23
2022-11-19T16:58:23.743Z,4.33
2022-11-19T17:00:57.776Z,4.80
2022-11-19T17:03:46.227Z,5.10
2022-11-19T17:06:25.118Z,4.83
2022-11-19T17:09:06.134Z,3.70
2022-11-19T17:15:01.952Z,5.43
2022-11-19T17:17:52.469Z,5.43
2022-11-19T17:20:42.154Z,5.80
2022-11-19T17:23:26.605Z,3.90
2022-11-19T17:26:00.254Z,2.97
2022-11-19T17:28:46.790Z,4.30
2022-11-19T17:34:25.664Z,3.97
2022-11-19T17:36:56.876Z,4.33
2022-11-19T17:39:45.357Z,5.20
2022-11-19T17:42:53.553Z,4.10
2022-11-19T17:45:39.053Z,3.40
2022-11-19T17:48:17.566Z,4.17
2022-11-19T17:56:49.645Z,5.53
2022-11-19T17:59:34.781Z,3.20
2022-11-19T18:02:12.396Z,3.93
2022-11-19T18:04:44.992Z,5.40
2022-11-19T18:07:14.459Z,4.40
2022-11-19T18:09:43.876Z,4.30
2022-11-19T18:12:15.638Z,4.57
2022-11-19T18:14:45.668Z,5.67
2022-11-19T18:17:20.580Z,4.63
2022-11-19T18:19:50.530Z,4.10
2022-11-19T18:22:21.234Z,4.03
2022-11-19T18:25:05.845Z,4.43
2022-11-19T18:27:35.534Z,3.77
2022-11-19T18:30:04.608Z,3.70
2022-11-19T18:32:36.535Z,4.57
2022-11-19T18:35:12.016Z,4.00
2022-11-19T18:37:54.799Z,5.30
2022-11-19T18:43:29.126Z,5.00
2022-11-19T18:46:00.698Z,4.60
2022-11-19T18:48:33.287Z,5.90
2022-11-19T18:53:47.131Z,4.83
2022-11-19T18:56:17.658Z,4.20
2022-11-19T18:58:47.732Z,4.87
2022-11-19T19:01:17.582Z,5.63
2022-11-19T19:03:51.890Z,3.30
2022-11-19T19:06:23.389Z,7.23
2022-11-19T19:09:05.119Z,4.93
2022-11-19T19:11:54.149Z,4.87
2022-11-19T19:14:24.851Z,4.30
2022-11-19T19:16:57.538Z,4.93
2022-11-19T19:19:36.663Z,4.00
2022-11-19T19:22:10.085Z,5.27
2022-11-19T19:24:55.202Z,4.33
2022-11-19T19:27:27.207Z,5.37
2022-11-19T19:30:15.579Z,5.17
2022-11-19T19:32:48.790Z,3.97
2022-11-19T19:35:37.802Z,5.30
2022-11-19T19:38:15.080Z,5.13
2022-11-19T19:40:45.998Z,8.07
2022-11-19T19:43:29.300Z,5.50
2022-11-19T19:46:16.994Z,4.40
2022-11-19T19:48:47.120Z,4.20
2022-11-19T19:51:21.493Z,3.33
2022-11-19T19:53:51.808Z,4.37
2022-11-19T19:56:23.756Z,4.23
2022-11-19T19:58:54.690Z,3.37
2022-11-19T20:01:26.259Z,2.87
2022-11-19T20:04:00.800Z,5.33
2022-11-19T20:06:34.982Z,4.50
2022-11-19T20:09:08.368Z,4.23
2022-11-19T20:11:40.406Z,6.10
2022-11-19T20:14:11.016Z,3.97
2022-11-19T20:16:44.903Z,4.40
2022-11-19T20:19:26.429Z,7.63
2022-11-19T20:22:09.709Z,4.50
2022-11-19T20:24:41.090Z,6.97
2022-11-19T20:27:11.410Z,7.67
2022-11-19T20:29:40.478Z,6.70
2022-11-19T20:32:10.791Z,5.73
2022-11-19T20:34:39.838Z,4.73
2022-11-19T20:37:14.247Z,4.50
2022-11-19T20:39:44.283Z,5.80
2022-11-19T20:42:32.094Z,5.27
2022-11-19T20:45:03.204Z,6.60
2022-11-19T20:47:38.535Z,5.27
2022-11-19T20:50:09.489Z,5.40
2022-11-19T20:53:09.407Z,5.20
2022-11-19T20:56:03.846Z,6.80
2022-11-19T20:58:33.403Z,6.17
2022-11-19T21:01:04.589Z,5.00
2022-11-19T21:03:34.803Z,6.30
2022-11-19T21:06:10.412Z,5.20
2022-11-19T21:08:43.644Z,6.13
2022-11-19T21:11:15.614Z,6.50
2022-11-19T21:13:46.246Z,7.67
2022-11-19T21:16:16.225Z,5.83
2022-11-19T21:18:47.198Z,5.50
2022-11-19T21:21:17.576Z,7.60
2022-11-19T21:23:48.788Z,5.03
2022-11-19T21:26:20.084Z,7.63
2022-11-19T21:28:49.830Z,5.73
2022-11-19T21:31:19.966Z,5.50
2022-11-19T21:33:49.908Z,4.40
2022-11-19T21:36:23.579Z,4.30
2022-11-19T21:38:55.451Z,5.73
2022-11-19T21:41:29.391Z,5.47
2022-11-19T21:43:58.366Z,6.30
2022-11-19T21:46:28.332Z,7.27
2022-11-19T21:48:57.315Z,6.37
2022-11-19T21:51:33.332Z,5.10
2022-11-19T21:54:07.516Z,7.23
2022-11-19T21:56:38.818Z,6.33
2022-11-19T21:59:08.928Z,5.47
2022-11-19T22:01:38.641Z,6.97
2022-11-19T22:04:08.841Z,5.97
2022-11-19T22:06:38.726Z,7.73
2022-11-19T22:09:09.614Z,6.67
2022-11-19T22:11:38.762Z,7.93
2022-11-19T22:14:09.691Z,5.07
2022-11-19T22:16:40.994Z,7.20
2022-11-19T22:19:10.290Z,5.73
2022-11-19T22:21:40.291Z,5.57
2022-11-19T22:24:14.441Z,6.43
2022-11-19T22:26:44.608Z,6.80
2022-11-19T22:29:13.535Z,6.10
2022-11-19T22:31:43.211Z,6.10
2022-11-19T22:34:16.046Z,5.67
2022-11-19T22:36:49.005Z,5.70
2022-11-19T22:39:22.736Z,5.60
2022-11-19T22:41:53.251Z,5.67
2022-11-19T22:44:22.856Z,7.60
2022-11-19T22:46:55.716Z,6.00
2022-11-19T22:49:25.732Z,6.53
2022-11-19T22:51:57.435Z,5.97
2022-11-19T22:54:28.889Z,6.93
2022-11-19T22:56:58.282Z,6.90
2022-11-19T22:59:27.590Z,6.00
2022-11-19T23:01:58.050Z,7.33
2022-11-19T23:04:29.658Z,7.53
2022-11-19T23:06:59.557Z,8.03
2022-11-19T23:09:31.398Z,5.33
2022-11-19T23:12:19.488Z,5.30
2022-11-19T23:14:57.617Z,6.10
2022-11-19T23:17:26.725Z,6.30
2022-11-19T23:19:58.144Z,4.80
2022-11-19T23:22:30.804Z,6.40
2022-11-19T23:25:01.979Z,5.97
2022-11-19T23:27:33.593Z,6.67
2022-11-19T23:30:08.260Z,6.37
2022-11-19T23:32:47.200Z,6.47
2022-11-19T23:35:20.819Z,7.77
2022-11-19T23:38:00.751Z,6.23
2022-11-19T23:40:32.547Z,7.97
2022-11-19T23:43:06.502Z,6.90
2022-11-19T23:45:39.850Z,5.13
2022-11-19T23:48:12.615Z,5.87
2022-11-19T23:50:44.254Z,6.23
2022-11-19T23:53:14.187Z,4.43
2022-11-19T23:55:55.823Z,7.93
2022-11-19T23:58:27.934Z,7.07
